Time;durP1;ratioP1;P1;durP2;ratioP2;P2;SDS_P1;SDS_P2;PMS_P1;PMS_P2;Temp;Humidity;BMP_temperature;BMP_pressure;BME280_temperature;BME280_humidity;BME280_pressure;Samples;Min_cycle;Max_cycle;Signal;HPM_P1;HPM_P2
2022/11/06 00:00:38;;;;;;;;;;;;;;;10.88;nan;101909.97;5041845;28;19917;-32
2022/11/06 00:03:03;;;;;;;;;;;;;;;10.87;nan;101903.81;5041986;28;19920;-32
2022/11/06 00:08:13;;;;;;;;;;;;;;;10.84;nan;101906.94;5038505;28;19966;-32
2022/11/06 00:10:38;;;;;;;;;;;;;;;10.82;nan;101910.88;5040092;28;19921;-32
2022/11/06 00:13:04;;;;;;;;;;;;;;;10.81;nan;101910.06;5040798;28;19921;-32
2022/11/06 00:15:29;;;;;;;;;;;;;;;10.80;nan;101912.97;5044649;28;19928;-32
2022/11/06 00:17:55;;;;;;;;;;;;;;;10.76;nan;101915.25;5032653;28;20103;-32
2022/11/06 00:20:20;;;;;;;;;;;;;;;10.75;nan;101912.78;5032470;28;19960;-32
2022/11/06 00:22:46;;;;;;;;;;;;;;;10.72;nan;101911.38;5037040;28;19925;-32
2022/11/06 00:25:11;;;;;;;;;;;;;;;10.70;nan;101912.63;5044560;28;20344;-32
2022/11/06 00:27:37;;;;;;;;;;;;;;;10.67;nan;101913.09;5045516;28;19925;-32
2022/11/06 00:30:03;;;;;;;;;;;;;;;10.66;nan;101916.81;5042216;28;20349;-32
2022/11/06 00:32:29;;;;;;;;;;;;;;;10.64;nan;101908.97;5049351;28;19920;-32
2022/11/06 00:34:54;;;;;;;;;;;;;;;10.63;nan;101902.00;5038887;28;20405;-31
2022/11/06 00:37:19;;;;;;;;;;;;;;;10.62;nan;101899.53;5042396;28;19917;-32
2022/11/06 00:39:45;;;;;;;;;;;;;;;10.59;nan;101901.63;5033394;28;19954;-31
2022/11/06 00:42:10;;;;;;;;;;;;;;;10.59;nan;101895.41;5038102;28;20000;-31
2022/11/06 00:44:35;;;;;;;;;;;;;;;10.58;nan;101902.63;5039384;28;19956;-32
2022/11/06 00:47:00;;;;;;;;;;;;;;;10.59;nan;101901.63;5044029;28;20014;-32
2022/11/06 00:49:27;;;;;;;;;;;;;;;10.58;nan;101909.84;5045939;28;19927;-32
2022/11/06 00:51:52;;;;;;;;;;;;;;;10.59;nan;101900.75;5042489;28;19924;-32
2022/11/06 00:54:17;;;;;;;;;;;;;;;10.61;nan;101898.72;5041670;28;19917;-31
2022/11/06 00:56:42;;;;;;;;;;;;;;;10.66;nan;101906.09;5036584;28;19921;-31
2022/11/06 00:59:10;;;;;;;;;;;;;;;10.67;nan;101899.69;5042791;28;19943;-32
2022/11/06 01:01:36;;;;;;;;;;;;;;;10.69;nan;101900.28;5044077;28;20047;-32
2022/11/06 01:04:07;;;;;;;;;;;;;;;10.69;nan;101894.91;5045746;28;19968;-32
2022/11/06 01:06:34;;;;;;;;;;;;;;;10.70;nan;101894.69;5039101;28;20464;-32
2022/11/06 01:09:00;;;;;;;;;;;;;;;10.69;nan;101895.72;5036052;28;19978;-32
2022/11/06 01:11:29;;;;;;;;;;;;;;;10.65;nan;101897.22;5043682;28;20379;-31
2022/11/06 01:13:56;;;;;;;;;;;;;;;10.63;nan;101891.25;5044683;28;20256;-31
2022/11/06 01:16:22;;;;;;;;;;;;;;;10.65;nan;101889.19;5040977;28;19917;-31
2022/11/06 01:18:48;;;;;;;;;;;;;;;10.67;nan;101891.63;5040541;28;19931;-31
2022/11/06 01:21:17;;;;;;;;;;;;;;;10.68;nan;101893.28;5038840;28;20074;-31
2022/11/06 01:23:43;;;;;;;;;;;;;;;10.69;nan;101897.59;5043766;28;19960;-32
2022/11/06 01:26:09;;;;;;;;;;;;;;;10.69;nan;101898.41;5046588;28;20397;-32
2022/11/06 01:28:35;;;;;;;;;;;;;;;10.70;nan;101893.88;5041436;28;20043;-32
2022/11/06 01:31:05;;;;;;;;;;;;;;;10.71;nan;101884.78;5041003;28;20370;-32
2022/11/06 01:33:30;;;;;;;;;;;;;;;10.72;nan;101887.25;5035599;28;20043;-32
2022/11/06 01:35:56;;;;;;;;;;;;;;;10.76;nan;101883.06;5039511;28;20007;-32
2022/11/06 01:38:21;;;;;;;;;;;;;;;10.79;nan;101884.53;5045957;28;19921;-32
2022/11/06 01:40:47;;;;;;;;;;;;;;;10.81;nan;101882.44;5038285;28;19920;-32
2022/11/06 01:43:15;;;;;;;;;;;;;;;10.83;nan;101878.47;5036405;28;19917;-32
2022/11/06 01:45:43;;;;;;;;;;;;;;;10.82;nan;101876.84;5037629;28;20670;-32
2022/11/06 01:48:09;;;;;;;;;;;;;;;10.83;nan;101869.63;5044812;28;19924;-32
2022/11/06 01:50:34;;;;;;;;;;;;;;;10.82;nan;101862.63;5040508;28;19999;-32
2022/11/06 01:53:01;;;;;;;;;;;;;;;10.83;nan;101865.06;5034389;28;19921;-32
2022/11/06 01:55:29;;;;;;;;;;;;;;;10.84;nan;101857.84;5039834;28;19924;-32
2022/11/06 01:57:55;;;;;;;;;;;;;;;10.83;nan;101854.34;5045432;28;19921;-32
2022/11/06 02:00:21;;;;;;;;;;;;;;;10.83;nan;101849.00;5044472;28;19921;-32
2022/11/06 02:02:46;;;;;;;;;;;;;;;10.85;nan;101848.75;5039505;28;19932;-32
2022/11/06 02:05:11;;;;;;;;;;;;;;;10.87;nan;101846.69;5034444;28;19916;-32
2022/11/06 02:07:38;;;;;;;;;;;;;;;10.86;nan;101847.72;5035350;28;19986;-32
2022/11/06 02:10:03;;;;;;;;;;;;;;;10.88;nan;101840.28;5036614;28;19921;-32
2022/11/06 02:12:39;;;;;;;;;;;;;;;10.88;nan;101842.94;5037674;28;19924;-32
2022/11/06 02:15:20;;;;;;;;;;;;;;;10.86;nan;101839.69;5039247;28;20453;-32
2022/11/06 02:17:51;;;;;;;;;;;;;;;10.88;nan;101845.63;5036399;28;20555;-32
2022/11/06 02:20:21;;;;;;;;;;;;;;;10.89;nan;101842.72;5043663;28;20413;-32
2022/11/06 02:22:57;;;;;;;;;;;;;;;10.90;nan;101833.63;5041453;28;20271;-32
2022/11/06 02:25:40;;;;;;;;;;;;;;;10.93;nan;101828.88;5040107;28;19916;-32
2022/11/06 02:28:32;;;;;;;;;;;;;;;10.90;nan;101832.81;5040839;28;20439;-32
2022/11/06 02:31:01;;;;;;;;;;;;;;;10.90;nan;101830.13;5035652;28;20598;-32
2022/11/06 02:33:40;;;;;;;;;;;;;;;10.88;nan;101832.22;5043462;28;19927;-32
2022/11/06 02:36:08;;;;;;;;;;;;;;;10.86;nan;101824.41;5042912;28;19943;-32
2022/11/06 02:38:36;;;;;;;;;;;;;;;10.85;nan;101824.63;5041965;28;20027;-32
2022/11/06 02:41:04;;;;;;;;;;;;;;;10.84;nan;101817.63;5040702;28;19932;-32
2022/11/06 02:43:41;;;;;;;;;;;;;;;10.84;nan;101812.28;5035231;28;19951;-32
2022/11/06 02:46:33;;;;;;;;;;;;;;;10.81;nan;101804.69;5041208;28;20360;-32
2022/11/06 02:49:02;;;;;;;;;;;;;;;10.78;nan;101808.63;5034844;28;20091;-32
2022/11/06 02:51:29;;;;;;;;;;;;;;;10.74;nan;101803.94;5037875;28;19971;-33
2022/11/06 02:53:57;;;;;;;;;;;;;;;10.72;nan;101797.97;5035629;28;19944;-32
2022/11/06 02:56:25;;;;;;;;;;;;;;;10.70;nan;101800.06;5042509;28;20017;-32
2022/11/06 02:59:00;;;;;;;;;;;;;;;10.69;nan;101793.06;5038723;28;19939;-32
2022/11/06 03:01:52;;;;;;;;;;;;;;;10.70;nan;101805.41;5041318;28;19975;-32
2022/11/06 03:04:21;;;;;;;;;;;;;;;10.71;nan;101804.38;5034808;28;19923;-33
2022/11/06 03:07:02;;;;;;;;;;;;;;;10.69;nan;101811.81;5040591;28;19931;-32
2022/11/06 03:09:29;;;;;;;;;;;;;;;10.66;nan;101810.41;5045312;28;19954;-32
2022/11/06 03:12:03;;;;;;;;;;;;;;;10.66;nan;101804.22;5044451;28;19946;-32
2022/11/06 03:14:32;;;;;;;;;;;;;;;10.63;nan;101799.31;5052328;28;19924;-32
2022/11/06 03:17:16;;;;;;;;;;;;;;;10.57;nan;101788.44;5060611;28;20417;-32
2022/11/06 03:19:47;;;;;;;;;;;;;;;10.58;nan;101790.06;5038900;28;19931;-32
2022/11/06 03:22:19;;;;;;;;;;;;;;;10.58;nan;101795.44;5046164;28;19923;-32
2022/11/06 03:24:50;;;;;;;;;;;;;;;10.58;nan;101795.44;5040215;28;20060;-32
2022/11/06 03:27:27;;;;;;;;;;;;;;;10.58;nan;101803.47;5062772;28;19923;-32
2022/11/06 03:30:04;;;;;;;;;;;;;;;10.58;nan;101806.16;5040728;28;20357;-32
2022/11/06 03:32:44;;;;;;;;;;;;;;;10.58;nan;101802.66;5044469;28;19963;-32
2022/11/06 03:35:18;;;;;;;;;;;;;;;10.56;nan;101800.19;5048689;28;19990;-32
2022/11/06 03:37:56;;;;;;;;;;;;;;;10.56;nan;101797.50;5056780;28;20220;-32
2022/11/06 03:40:23;;;;;;;;;;;;;;;10.55;nan;101801.22;5044439;28;20405;-32
2022/11/06 03:42:51;;;;;;;;;;;;;;;10.57;nan;101793.78;5052596;28;20272;-32
2022/11/06 03:45:19;;;;;;;;;;;;;;;10.58;nan;101798.09;5047059;28;19926;-32
2022/11/06 03:47:47;;;;;;;;;;;;;;;10.58;nan;101798.09;5045832;28;19990;-32
2022/11/06 03:50:23;;;;;;;;;;;;;;;10.57;nan;101799.16;5041763;28;20126;-32
2022/11/06 03:52:53;;;;;;;;;;;;;;;10.56;nan;101794.00;5050747;28;19920;-32
2022/11/06 03:55:21;;;;;;;;;;;;;;;10.55;nan;101792.38;5056342;28;19952;-32
2022/11/06 03:57:49;;;;;;;;;;;;;;;10.55;nan;101792.38;5045307;28;19928;-32
2022/11/06 04:00:16;;;;;;;;;;;;;;;10.54;nan;101796.09;5039399;28;19967;-32
2022/11/06 04:02:44;;;;;;;;;;;;;;;10.51;nan;101792.00;5040100;28;20386;-32
2022/11/06 04:05:12;;;;;;;;;;;;;;;10.48;nan;101795.13;5046253;28;20385;-32
2022/11/06 04:13:56;;;;;;;;;;;;;;;10.47;nan;101793.50;5054930;28;20374;-32
2022/11/06 04:15:59;;;;;;;;;;;;;;;10.46;nan;101793.72;5014677;28;19943;-32
2022/11/06 04:18:24;;;;;;;;;;;;;;;10.43;nan;101788.81;5041928;28;19920;-32
2022/11/06 04:27:10;;;;;;;;;;;;;;;10.38;nan;101778.75;5051246;28;19974;-32
2022/11/06 04:29:51;;;;;;;;;;;;;;;10.35;nan;101773.00;5048296;28;20045;-32
2022/11/06 04:32:21;;;;;;;;;;;;;;;10.32;nan;101771.59;5037076;28;19921;-32
2022/11/06 04:34:56;;;;;;;;;;;;;;;10.31;nan;101769.97;5047549;28;19952;-32
2022/11/06 04:37:45;;;;;;;;;;;;;;;10.27;nan;101774.13;5059537;28;19943;-32
2022/11/06 04:40:30;;;;;;;;;;;;;;;10.27;nan;101779.47;5037307;28;20346;-32
2022/11/06 04:43:04;;;;;;;;;;;;;;;10.30;nan;101781.72;5010004;28;19916;-32
2022/11/06 04:45:34;;;;;;;;;;;;;;;10.31;nan;101775.31;5041293;28;20009;-32
2022/11/06 04:48:01;;;;;;;;;;;;;;;10.32;nan;101782.31;5059053;28;20382;-32
2022/11/06 04:50:29;;;;;;;;;;;;;;;10.34;nan;101780.22;5050419;28;19921;-32
2022/11/06 04:52:55;;;;;;;;;;;;;;;10.34;nan;101780.22;5043897;28;19921;-32
2022/11/06 04:55:21;;;;;;;;;;;;;;;10.34;nan;101793.63;5039110;28;20341;-32
2022/11/06 04:57:47;;;;;;;;;;;;;;;10.34;nan;101798.16;5049475;28;19933;-32
2022/11/06 05:00:13;;;;;;;;;;;;;;;10.34;nan;101803.53;5050924;28;19962;-32
2022/11/06 05:02:38;;;;;;;;;;;;;;;10.34;nan;101800.84;5045574;28;19925;-32
2022/11/06 05:05:04;;;;;;;;;;;;;;;10.34;nan;101793.63;5036035;28;19939;-32
2022/11/06 05:07:29;;;;;;;;;;;;;;;10.31;nan;101786.03;5034149;28;19917;-32
2022/11/06 05:09:55;;;;;;;;;;;;;;;10.27;nan;101790.19;5047932;28;20007;-32
2022/11/06 05:12:20;;;;;;;;;;;;;;;10.23;nan;101789.81;5042075;28;19917;-32
2022/11/06 05:14:45;;;;;;;;;;;;;;;10.19;nan;101787.75;5038414;28;19927;-32
2022/11/06 05:17:11;;;;;;;;;;;;;;;10.17;nan;101793.34;5039841;28;20290;-32
2022/11/06 05:19:36;;;;;;;;;;;;;;;10.17;nan;101790.66;5041344;28;19932;-32
2022/11/06 05:24:45;;;;;;;;;;;;;;;10.14;nan;101787.59;5041032;28;19923;-31
2022/11/06 05:27:10;;;;;;;;;;;;;;;10.12;nan;101789.69;5035054;28;19917;-32
2022/11/06 05:29:37;;;;;;;;;;;;;;;10.12;nan;101795.03;5037314;28;21320;-32
2022/11/06 05:32:03;;;;;;;;;;;;;;;10.12;nan;101793.19;5043893;28;19928;-32
2022/11/06 05:34:28;;;;;;;;;;;;;;;10.11;nan;101786.19;5042102;28;19923;-32
2022/11/06 05:36:53;;;;;;;;;;;;;;;10.10;nan;101773.03;5038261;28;19991;-32
2022/11/06 05:39:19;;;;;;;;;;;;;;;10.10;nan;101763.13;5040389;28;20013;-32
2022/11/06 05:41:44;;;;;;;;;;;;;;;10.10;nan;101763.13;5040495;28;19935;-32
2022/11/06 05:44:09;;;;;;;;;;;;;;;10.10;nan;101765.81;5038666;28;19970;-32
2022/11/06 05:46:35;;;;;;;;;;;;;;;10.10;nan;101767.66;5044827;28;19917;-32
2022/11/06 05:49:00;;;;;;;;;;;;;;;10.09;nan;101756.13;5039333;28;19974;-32
2022/11/06 05:51:25;;;;;;;;;;;;;;;10.08;nan;101759.84;5039163;28;19983;-32
2022/11/06 05:53:50;;;;;;;;;;;;;;;10.04;nan;101763.97;5042003;28;19928;-31
2022/11/06 05:56:16;;;;;;;;;;;;;;;10.02;nan;101770.59;5043478;28;20573;-31
2022/11/06 05:58:41;;;;;;;;;;;;;;;9.97;nan;101777.44;5041614;28;19929;-32
2022/11/06 06:01:06;;;;;;;;;;;;;;;9.97;nan;101772.09;5037797;28;20378;-32
2022/11/06 06:03:32;;;;;;;;;;;;;;;9.96;nan;101778.47;5037700;28;19975;-33
2022/11/06 06:05:57;;;;;;;;;;;;;;;9.96;nan;101778.47;5041298;28;20260;-32
2022/11/06 06:08:22;;;;;;;;;;;;;;;9.98;nan;101770.22;5040924;28;20424;-32
2022/11/06 06:10:48;;;;;;;;;;;;;;;9.97;nan;101771.25;5039611;28;20291;-32
2022/11/06 06:13:14;;;;;;;;;;;;;;;9.91;nan;101772.97;5034778;28;19925;-32
2022/11/06 06:15:40;;;;;;;;;;;;;;;9.90;nan;101767.84;5041132;28;19925;-32
2022/11/06 06:18:06;;;;;;;;;;;;;;;9.91;nan;101778.31;5042354;28;20378;-32
2022/11/06 06:20:31;;;;;;;;;;;;;;;9.92;nan;101779.16;5040787;28;20314;-32
2022/11/06 06:22:57;;;;;;;;;;;;;;;9.94;nan;101791.25;5033959;28;19920;-32
2022/11/06 06:25:23;;;;;;;;;;;;;;;9.96;nan;101789.19;5037574;28;19917;-32
2022/11/06 06:27:48;;;;;;;;;;;;;;;9.98;nan;101791.66;5041638;28;19916;-32
2022/11/06 06:30:14;;;;;;;;;;;;;;;9.99;nan;101794.09;5040933;28;20204;-32
2022/11/06 06:32:40;;;;;;;;;;;;;;;10.01;nan;101796.56;5039958;28;19932;-33
2022/11/06 06:35:05;;;;;;;;;;;;;;;10.00;nan;101792.25;5033299;28;19925;-32
2022/11/06 06:37:30;;;;;;;;;;;;;;;9.99;nan;101794.09;5044039;28;19921;-32
2022/11/06 06:39:56;;;;;;;;;;;;;;;9.99;nan;101788.75;5040748;28;19931;-32
2022/11/06 06:42:21;;;;;;;;;;;;;;;10.02;nan;101779.44;5042697;28;20279;-32
2022/11/06 06:44:46;;;;;;;;;;;;;;;10.04;nan;101779.22;5037638;28;19925;-32
2022/11/06 06:47:15;;;;;;;;;;;;;;;10.06;nan;101782.53;5041157;28;19982;-32
2022/11/06 06:49:41;;;;;;;;;;;;;;;10.08;nan;101777.78;5044242;28;20015;-32
2022/11/06 06:52:06;;;;;;;;;;;;;;;10.08;nan;101780.47;5045417;28;20021;-32
2022/11/06 06:54:32;;;;;;;;;;;;;;;10.09;nan;101774.06;5048049;28;19986;-32
2022/11/06 06:56:58;;;;;;;;;;;;;;;10.09;nan;101777.56;5043467;28;20403;-32
2022/11/06 06:59:24;;;;;;;;;;;;;;;10.13;nan;101780.59;5043359;28;19921;-32
2022/11/06 07:01:49;;;;;;;;;;;;;;;10.18;nan;101767.38;5048177;28;20331;-32
2022/11/06 07:04:14;;;;;;;;;;;;;;;10.24;nan;101774.56;5052235;28;19916;-33
2022/11/06 07:06:40;;;;;;;;;;;;;;;10.32;nan;101771.59;5042274;28;20473;-32
2022/11/06 07:09:05;;;;;;;;;;;;;;;10.38;nan;101780.59;5041225;28;19963;-32
2022/11/06 07:11:31;;;;;;;;;;;;;;;10.43;nan;101780.78;5042061;28;19971;-32
2022/11/06 07:13:56;;;;;;;;;;;;;;;10.46;nan;101778.47;5043182;28;19920;-32
2022/11/06 07:16:21;;;;;;;;;;;;;;;10.50;nan;101781.50;5045176;28;20469;-32
2022/11/06 07:18:46;;;;;;;;;;;;;;;10.51;nan;101780.47;5044686;28;19924;-32
2022/11/06 07:21:12;;;;;;;;;;;;;;;10.54;nan;101778.16;5046251;28;19924;-32
2022/11/06 07:23:38;;;;;;;;;;;;;;;10.61;nan;101786.16;5047734;28;19932;-32
2022/11/06 07:26:04;;;;;;;;;;;;;;;10.70;nan;101787.47;5049546;28;19916;-32
2022/11/06 07:28:29;;;;;;;;;;;;;;;10.78;nan;101786.38;5044351;28;19948;-32
2022/11/06 07:30:59;;;;;;;;;;;;;;;10.90;nan;101784.56;5040114;28;19921;-33
2022/11/06 07:33:24;;;;;;;;;;;;;;;11.02;nan;101787.31;5047567;28;20486;-33
2022/11/06 07:35:49;;;;;;;;;;;;;;;11.12;nan;101783.03;5043122;28;19971;-33
2022/11/06 07:38:15;;;;;;;;;;;;;;;11.18;nan;101795.56;5042839;28;19921;-33
2022/11/06 07:40:40;;;;;;;;;;;;;;;11.29;nan;101793.97;5038275;28;19973;-33
2022/11/06 07:43:06;;;;;;;;;;;;;;;11.37;nan;101798.19;5042955;28;19923;-33
2022/11/06 07:45:31;;;;;;;;;;;;;;;11.49;nan;101785.66;5046697;28;20008;-33
2022/11/06 07:47:57;;;;;;;;;;;;;;;11.50;nan;101789.97;5043320;28;19928;-33
2022/11/06 07:50:22;;;;;;;;;;;;;;;11.53;nan;101789.50;5041002;28;20447;-32
2022/11/06 07:52:47;;;;;;;;;;;;;;;11.63;nan;101794.31;5036271;28;19925;-33
2022/11/06 07:55:13;;;;;;;;;;;;;;;11.67;nan;101787.44;5043310;28;19924;-33
2022/11/06 07:57:38;;;;;;;;;;;;;;;11.76;nan;101794.13;5038287;28;19916;-32
2022/11/06 08:00:04;;;;;;;;;;;;;;;11.86;nan;101790.91;5041813;28;19917;-33
2022/11/06 08:02:30;;;;;;;;;;;;;;;11.97;nan;101784.72;5037268;28;20027;-33
2022/11/06 08:04:55;;;;;;;;;;;;;;;12.03;nan;101773.88;5038767;28;20053;-33
2022/11/06 08:07:20;;;;;;;;;;;;;;;12.09;nan;101772.13;5044325;28;19971;-33
2022/11/06 08:09:46;;;;;;;;;;;;;;;12.19;nan;101775.03;5041168;28;20350;-33
2022/11/06 08:12:13;;;;;;;;;;;;;;;12.24;nan;101772.50;5037744;28;19928;-33
2022/11/06 08:14:38;;;;;;;;;;;;;;;12.34;nan;101771.88;5037963;28;19974;-33
2022/11/06 08:17:04;;;;;;;;;;;;;;;12.37;nan;101769.53;5043874;28;19920;-33
2022/11/06 08:19:29;;;;;;;;;;;;;;;12.46;nan;101770.00;5043142;28;20023;-33
2022/11/06 08:21:55;;;;;;;;;;;;;;;12.58;nan;101780.75;5043125;28;19917;-33
2022/11/06 08:24:20;;;;;;;;;;;;;;;12.63;nan;101770.09;5040682;28;21352;-33
2022/11/06 08:26:45;;;;;;;;;;;;;;;12.74;nan;101769.25;5046085;28;20370;-33
2022/11/06 08:29:10;;;;;;;;;;;;;;;12.84;nan;101774.84;5045176;28;20520;-33
2022/11/06 08:31:36;;;;;;;;;;;;;;;12.95;nan;101776.69;5041109;28;19920;-33
2022/11/06 08:34:01;;;;;;;;;;;;;;;13.05;nan;101780.63;5043763;28;19924;-33
2022/11/06 08:36:26;;;;;;;;;;;;;;;13.18;nan;101777.69;5038202;28;19927;-33
2022/11/06 08:38:52;;;;;;;;;;;;;;;13.09;nan;101768.31;5044794;28;19929;-33
2022/11/06 08:41:17;;;;;;;;;;;;;;;13.16;nan;101758.25;5042049;28;19927;-33
2022/11/06 08:43:43;;;;;;;;;;;;;;;13.23;nan;101751.69;5046069;28;20402;-33
2022/11/06 08:46:09;;;;;;;;;;;;;;;13.38;nan;101761.09;5041239;28;19963;-33
2022/11/06 08:48:34;;;;;;;;;;;;;;;13.42;nan;101763.06;5039914;28;20073;-33
2022/11/06 08:51:00;;;;;;;;;;;;;;;13.55;nan;101756.56;5050594;28;19923;-33
2022/11/06 08:53:25;;;;;;;;;;;;;;;13.70;nan;101762.22;5041686;28;19999;-34
2022/11/06 08:55:51;;;;;;;;;;;;;;;13.83;nan;101763.78;5037261;28;20020;-34
2022/11/06 08:58:16;;;;;;;;;;;;;;;13.82;nan;101757.56;5036374;28;20393;-34
2022/11/06 09:00:42;;;;;;;;;;;;;;;13.91;nan;101756.09;5039499;28;20409;-34
2022/11/06 09:03:09;;;;;;;;;;;;;;;13.96;nan;101754.53;5033448;28;19931;-33
2022/11/06 09:05:35;;;;;;;;;;;;;;;14.07;nan;101738.28;5038338;28;19920;-33
2022/11/06 09:08:00;;;;;;;;;;;;;;;14.17;nan;101738.41;5033020;28;19936;-33
2022/11/06 09:10:26;;;;;;;;;;;;;;;14.26;nan;101740.69;5034783;28;19920;-33
2022/11/06 09:12:51;;;;;;;;;;;;;;;14.29;nan;101741.00;5040454;28;19952;-33
2022/11/06 09:15:18;;;;;;;;;;;;;;;14.44;nan;101738.56;5048132;28;19924;-33
2022/11/06 09:17:48;;;;;;;;;;;;;;;14.51;nan;101743.75;5045882;28;20430;-33
2022/11/06 09:20:14;;;;;;;;;;;;;;;14.47;nan;101737.25;5038825;28;19923;-34
2022/11/06 09:22:40;;;;;;;;;;;;;;;14.48;nan;101737.00;5040839;28;19921;-34
2022/11/06 09:25:05;;;;;;;;;;;;;;;14.52;nan;101734.59;5045096;28;20393;-34
2022/11/06 09:27:31;;;;;;;;;;;;;;;14.57;nan;101728.47;5045069;28;20420;-33
2022/11/06 09:29:56;;;;;;;;;;;;;;;14.69;nan;101737.25;5050503;28;19921;-33
2022/11/06 09:32:22;;;;;;;;;;;;;;;14.79;nan;101726.59;5030715;28;19927;-34
2022/11/06 09:34:47;;;;;;;;;;;;;;;14.89;nan;101728.56;5048760;28;19978;-33
2022/11/06 09:37:12;;;;;;;;;;;;;;;15.00;nan;101716.84;5043653;28;20417;-34
2022/11/06 09:39:38;;;;;;;;;;;;;;;14.99;nan;101716.03;5049810;28;19987;-34
2022/11/06 09:42:12;;;;;;;;;;;;;;;15.09;nan;101707.22;5037083;28;19920;-34
2022/11/06 09:44:46;;;;;;;;;;;;;;;15.30;nan;101710.94;5032295;28;20374;-34
2022/11/06 09:47:14;;;;;;;;;;;;;;;15.33;nan;101723.91;5045867;28;20362;-34
2022/11/06 09:49:40;;;;;;;;;;;;;;;15.33;nan;101711.22;5038480;28;20353;-34
2022/11/06 09:52:11;;;;;;;;;;;;;;;15.41;nan;101713.44;5038297;28;20021;-34
2022/11/06 09:54:39;;;;;;;;;;;;;;;15.39;nan;101714.78;5035253;28;19924;-34
2022/11/06 09:57:09;;;;;;;;;;;;;;;15.45;nan;101710.25;5045455;28;19922;-34
2022/11/06 09:59:37;;;;;;;;;;;;;;;15.54;nan;101700.59;5043023;28;19931;-34
2022/11/06 10:02:10;;;;;;;;;;;;;;;15.62;nan;101700.16;5046340;28;19916;-33
2022/11/06 10:04:54;;;;;;;;;;;;;;;15.76;nan;101704.03;5033908;28;19920;-34
2022/11/06 10:07:23;;;;;;;;;;;;;;;15.77;nan;101696.75;5046338;28;20290;-33
2022/11/06 10:09:48;;;;;;;;;;;;;;;15.81;nan;101700.56;5046692;28;19947;-34
2022/11/06 10:12:21;;;;;;;;;;;;;;;15.81;nan;101701.38;5048763;28;20282;-33
2022/11/06 10:14:56;;;;;;;;;;;;;;;15.80;nan;101705.16;5036175;28;19975;-34
2022/11/06 10:17:40;;;;;;;;;;;;;;;15.81;nan;101714.09;5037050;28;20368;-33
2022/11/06 10:20:19;;;;;;;;;;;;;;;15.78;nan;101696.47;5050776;28;19931;-33
2022/11/06 10:22:55;;;;;;;;;;;;;;;15.88;nan;101688.44;5046193;28;19924;-34
2022/11/06 10:25:22;;;;;;;;;;;;;;;15.98;nan;101710.16;5041443;28;19920;-34
2022/11/06 10:28:07;;;;;;;;;;;;;;;16.00;nan;101696.38;5035144;28;19925;-33
2022/11/06 10:30:42;;;;;;;;;;;;;;;16.01;nan;101700.72;5040138;28;19993;-34
2022/11/06 10:33:07;;;;;;;;;;;;;;;16.06;nan;101697.22;5035148;28;20417;-34
2022/11/06 10:35:32;;;;;;;;;;;;;;;16.20;nan;101699.19;5034361;28;20027;-34
2022/11/06 10:38:20;;;;;;;;;;;;;;;16.28;nan;101692.47;5036580;28;20023;-34
2022/11/06 10:40:47;;;;;;;;;;;;;;;16.33;nan;101697.88;5041923;28;19921;-34
2022/11/06 10:43:13;;;;;;;;;;;;;;;16.37;nan;101688.19;5034448;28;19920;-34
2022/11/06 10:45:40;;;;;;;;;;;;;;;16.44;nan;101688.75;5032524;28;20896;-34
2022/11/06 10:48:24;;;;;;;;;;;;;;;16.57;nan;101692.88;5038539;28;19921;-35
2022/11/06 10:51:10;;;;;;;;;;;;;;;16.72;nan;101681.31;5038104;28;19959;-34
2022/11/06 10:53:42;;;;;;;;;;;;;;;16.83;nan;101680.25;5042827;28;20646;-34
2022/11/06 10:56:14;;;;;;;;;;;;;;;16.87;nan;101678.63;5037158;28;19927;-34
2022/11/06 10:58:39;;;;;;;;;;;;;;;16.98;nan;101682.19;5036818;28;20182;-34
2022/11/06 11:01:07;;;;;;;;;;;;;;;17.03;nan;101669.47;5032559;28;19921;-34
2022/11/06 11:03:34;;;;;;;;;;;;;;;17.00;nan;101661.88;5039093;28;19956;-34
2022/11/06 11:06:01;;;;;;;;;;;;;;;16.99;nan;101660.25;5038089;28;20011;-34
2022/11/06 11:08:30;;;;;;;;;;;;;;;17.01;nan;101649.97;5039971;28;20309;-34
2022/11/06 11:11:02;;;;;;;;;;;;;;;17.07;nan;101646.19;5032868;28;20130;-34
2022/11/06 11:13:28;;;;;;;;;;;;;;;17.10;nan;101645.66;5034656;28;19920;-34
2022/11/06 11:15:53;;;;;;;;;;;;;;;17.18;nan;101655.94;5035695;28;19925;-34
2022/11/06 11:18:33;;;;;;;;;;;;;;;17.32;nan;101655.41;5037827;28;19928;-34
2022/11/06 11:21:24;;;;;;;;;;;;;;;17.34;nan;101650.53;5035143;28;20293;-34
2022/11/06 11:24:05;;;;;;;;;;;;;;;17.35;nan;101649.44;5031871;28;20612;-34
2022/11/06 11:26:31;;;;;;;;;;;;;;;17.39;nan;101639.69;5040499;28;19948;-34
2022/11/06 11:28:58;;;;;;;;;;;;;;;17.50;nan;101638.59;5038524;28;19972;-34
2022/11/06 11:31:27;;;;;;;;;;;;;;;17.63;nan;101640.75;5035659;28;20014;-34
2022/11/06 11:33:55;;;;;;;;;;;;;;;17.77;nan;101639.16;5035863;28;20621;-34
2022/11/06 11:36:20;;;;;;;;;;;;;;;17.86;nan;101627.72;5043206;28;20422;-34
2022/11/06 11:38:47;;;;;;;;;;;;;;;17.90;nan;101639.63;5041690;28;20019;-34
2022/11/06 11:41:18;;;;;;;;;;;;;;;17.95;nan;101628.78;5038609;28;19972;-34
2022/11/06 11:43:54;;;;;;;;;;;;;;;18.08;nan;101625.47;5032242;28;19983;-34
2022/11/06 11:46:20;;;;;;;;;;;;;;;18.21;nan;101627.63;5036052;28;20606;-34
2022/11/06 11:48:56;;;;;;;;;;;;;;;18.33;nan;101611.84;5040134;28;20003;-35
2022/11/06 11:51:34;;;;;;;;;;;;;;;18.35;nan;101615.06;5040365;28;20002;-34
2022/11/06 11:54:19;;;;;;;;;;;;;;;18.37;nan;101603.94;5038471;28;19928;-34
2022/11/06 11:56:50;;;;;;;;;;;;;;;18.33;nan;101611.84;5033828;28;20303;-35
2022/11/06 11:59:18;;;;;;;;;;;;;;;18.37;nan;101612.88;5035948;28;20287;-35
2022/11/06 12:01:44;;;;;;;;;;;;;;;18.40;nan;101612.31;5040449;28;20382;-34
2022/11/06 12:04:28;;;;;;;;;;;;;;;18.39;nan;101596.31;5041405;28;20375;-35
2022/11/06 12:06:59;;;;;;;;;;;;;;;18.48;nan;101600.06;5036020;28;20310;-34
2022/11/06 12:09:25;;;;;;;;;;;;;;;18.59;nan;101588.06;5039012;28;19920;-34
2022/11/06 12:11:51;;;;;;;;;;;;;;;18.55;nan;101591.63;5040007;28;19943;-35
2022/11/06 12:14:20;;;;;;;;;;;;;;;18.51;nan;101579.72;5041186;28;20433;-35
2022/11/06 12:16:47;;;;;;;;;;;;;;;18.39;nan;101594.44;5035539;28;20091;-34
2022/11/06 12:19:13;;;;;;;;;;;;;;;18.41;nan;101583.28;5036887;28;20306;-35
2022/11/06 12:21:40;;;;;;;;;;;;;;;18.51;nan;101582.44;5038081;28;19925;-35
2022/11/06 12:24:15;;;;;;;;;;;;;;;18.52;nan;101576.72;5039516;28;19925;-35
2022/11/06 12:26:44;;;;;;;;;;;;;;;18.51;nan;101577.00;5042123;28;19921;-35
2022/11/06 12:29:15;;;;;;;;;;;;;;;18.57;nan;101578.59;5032808;28;20174;-35
2022/11/06 12:31:43;;;;;;;;;;;;;;;18.69;nan;101579.09;5039276;28;19956;-35
2022/11/06 12:34:22;;;;;;;;;;;;;;;18.86;nan;101581.41;5040816;28;19920;-35
2022/11/06 12:37:10;;;;;;;;;;;;;;;18.78;nan;101560.28;5041821;28;20019;-35
2022/11/06 12:39:39;;;;;;;;;;;;;;;18.71;nan;101563.31;5033530;28;19928;-35
2022/11/06 12:42:05;;;;;;;;;;;;;;;18.80;nan;101577.91;5038640;28;19928;-35
2022/11/06 12:44:30;;;;;;;;;;;;;;;18.85;nan;101558.88;5037096;28;19920;-35
2022/11/06 12:47:03;;;;;;;;;;;;;;;19.08;nan;101556.50;5039797;28;20157;-35
2022/11/06 12:49:31;;;;;;;;;;;;;;;19.35;nan;101558.69;5035721;28;19920;-35
2022/11/06 12:52:19;;;;;;;;;;;;;;;19.54;nan;101554.16;5034631;28;19932;-35
2022/11/06 12:54:45;;;;;;;;;;;;;;;19.63;nan;101557.09;5011436;28;19927;-35
2022/11/06 12:57:19;;;;;;;;;;;;;;;19.73;nan;101556.94;5039363;28;19924;-35
2022/11/06 13:00:04;;;;;;;;;;;;;;;19.94;nan;101561.06;5034786;28;19925;-35
2022/11/06 13:02:41;;;;;;;;;;;;;;;20.23;nan;101548.16;5034591;28;19979;-35
2022/11/06 13:05:15;;;;;;;;;;;;;;;20.56;nan;101553.69;5041254;28;20393;-34
2022/11/06 13:07:53;;;;;;;;;;;;;;;20.84;nan;101551.09;5038961;28;19963;-34
2022/11/06 13:10:27;;;;;;;;;;;;;;;20.90;nan;101537.09;5037262;28;19963;-34
2022/11/06 13:13:11;;;;;;;;;;;;;;;21.08;nan;101538.16;5033922;28;19966;-34
2022/11/06 13:15:44;;;;;;;;;;;;;;;21.28;nan;101526.09;5037456;28;20349;-35
2022/11/06 13:18:16;;;;;;;;;;;;;;;21.54;nan;101537.31;5038334;28;20245;-35
2022/11/06 13:20:48;;;;;;;;;;;;;;;21.80;nan;101521.25;5037076;28;19921;-34
2022/11/06 13:23:32;;;;;;;;;;;;;;;22.04;nan;101527.28;5033042;28;20271;-35